createdAt,value
2022-12-27T05:10:36.985Z,3.22
2022-12-27T05:20:38.838Z,8.95
2022-12-27T05:30:42.734Z,4.10
2022-12-27T05:40:44.650Z,4.45
2022-12-27T05:50:46.634Z,6.13
2022-12-27T06:00:48.550Z,2.83
2022-12-27T06:10:50.380Z,9.57
2022-12-27T06:20:52.244Z,3.80
2022-12-27T06:30:54.103Z,5.82
2022-12-27T06:41:04.212Z,7.93
2022-12-27T06:51:08.523Z,23.25
2022-12-27T07:01:16.375Z,2.90
2022-12-27T07:11:19.357Z,3.65
2022-12-27T07:21:23.586Z,3.15
2022-12-27T07:31:27.246Z,5.65
2022-12-27T07:41:29.299Z,20.35
2022-12-27T07:51:31.257Z,4.93
2022-12-27T16:14:35.970Z,13.73
2022-12-27T16:24:49.519Z,10.50
2022-12-27T16:35:13.682Z,17.63
2022-12-27T16:45:39.106Z,15.68
2022-12-27T16:56:05.130Z,10.38
2022-12-27T17:06:35.040Z,15.43
2022-12-27T17:16:48.051Z,18.88
2022-12-27T17:27:17.669Z,15.48
2022-12-27T17:37:32.465Z,12.88
2022-12-27T17:47:58.901Z,9.02
2022-12-27T17:58:09.074Z,12.98
2022-12-27T18:08:32.153Z,10.50
2022-12-27T18:18:34.885Z,20.67
2022-12-27T18:28:40.277Z,15.23
2022-12-27T18:38:46.640Z,20.65
2022-12-27T18:48:48.761Z,26.35
2022-12-27T18:59:06.587Z,14.10
2022-12-27T19:09:16.802Z,21.08
2022-12-27T19:19:28.249Z,13.45
2022-12-27T19:29:35.321Z,16.00
2022-12-27T19:39:41.584Z,12.18
2022-12-27T19:49:44.804Z,7.20
2022-12-27T19:59:47.040Z,17.92
2022-12-27T20:09:49.544Z,19.95
2022-12-27T20:19:53.244Z,10.95
2022-12-27T20:30:08.004Z,7.20
2022-12-27T20:40:12.021Z,13.50
2022-12-27T20:50:14.271Z,12.82
2022-12-27T21:00:16.644Z,21.40
2022-12-27T21:10:18.868Z,18.77
2022-12-27T21:20:20.874Z,20.40
2022-12-27T21:30:22.674Z,34.25
2022-12-27T21:40:24.615Z,20.75
2022-12-27T21:50:26.473Z,18.95
2022-12-27T22:00:28.527Z,38.13
2022-12-27T22:10:30.978Z,40.05
2022-12-27T22:20:32.821Z,58.03
2022-12-27T22:30:38.650Z,29.83
2022-12-27T22:40:45.844Z,23.33
2022-12-27T22:50:48.744Z,28.55
2022-12-27T23:00:50.669Z,49.63
2022-12-27T23:10:52.990Z,28.08
2022-12-27T23:21:21.773Z,38.88
2022-12-27T23:31:22.466Z,31.50
2022-12-27T23:41:25.571Z,19.50
2022-12-27T23:51:28.795Z,13.15
